ADDS METAR Data INFO
IDs: Format: Raw Decoded Include TAF

Data at: 0034 UTC 23 Oct 2017

KLCK 230015Z AUTO 13003KT 10SM CLR 17/10 A3013 RMK AO2 T01740100 PWINO
KLCK 222355Z AUTO 15003KT 10SM CLR 18/10 A3013 RMK AO2 T01810096 PWINO
KLCK 222335Z AUTO 00000KT 10SM CLR 18/10 A3012 RMK AO2 T01810096 PWINO
KLCK 222315Z AUTO 15003KT 10SM CLR 19/10 A3011 RMK AO2 T01880097 PWINO
KLCK 222255Z AUTO 15003KT 10SM CLR 20/10 A3013 RMK AO2 T01970096 PWINO
KLCK 222235Z AUTO 17003KT 10SM CLR 20/10 A3013 RMK AO2 T02010100 PWINO
KLCK 222215Z AUTO 17004KT 10SM CLR 21/10 A3013 RMK AO2 T02070102 PWINO
KLCK 222155Z AUTO 18004KT 10SM CLR 22/10 A3014 RMK AO2 T02150099 PWINO
KLCK 222135Z AUTO 17005KT 10SM CLR 22/10 A3014 RMK AO2 T02200096 PWINO
KLCK 222115Z AUTO 16005KT 10SM CLR 23/09 A3013 RMK AO2 T02250093 PWINO
KLCK 222055Z AUTO 17009KT 10SM CLR 23/10 A3014 RMK AO2 T02290095 PWINO
KLCK 222035Z AUTO 17008KT 10SM CLR 23/11 A3013 RMK AO2 T02310105 PWINO
KLCK 222015Z AUTO 18011G14KT 10SM CLR 23/11 A3013 RMK AO2 T02340111 PWINO
KLCK 221955Z AUTO 15010KT 10SM CLR 24/11 A3013 RMK AO2 T02350114 PWINO
KLCK 221935Z AUTO 18010G17KT 10SM CLR 24/11 A3013 RMK AO2 T02350112 PWINO
KLCK 221915Z AUTO 17012G19KT 10SM CLR 24/12 A3013 RMK AO2 T02440115 PWINO
KLCK 221855Z AUTO 17010KT 10SM CLR 24/12 A3014 RMK AO2 T02420120 PWINO
KLCK 221835Z AUTO 18009G14KT 10SM CLR 24/12 A3016 RMK AO2 T02370120 PWINO
KLCK 221815Z AUTO 19011G15KT 10SM CLR 24/12 A3017 RMK AO2 T02390119 PWINO
KLCK 221755Z AUTO 19010G15KT 10SM CLR 24/12 A3018 RMK AO2 T02400115 PWINO
KLCK 221735Z AUTO 20011G16KT 10SM CLR 24/12 A3020 RMK AO2 T02410115 PWINO
KLCK 221715Z AUTO 21010G17KT 10SM CLR 24/11 A3021 RMK AO2 T02390114 PWINO
KLCK 221655Z AUTO 19009KT 10SM CLR 24/11 A3021 RMK AO2 T02350111 PWINO
KLCK 221635Z AUTO 19011KT 10SM CLR 23/11 A3022 RMK AO2 T02310110 PWINO
KLCK 221615Z AUTO 21012KT 10SM CLR 23/11 A3023 RMK AO2 T02250109 PWINO
KLCK 221555Z AUTO 20010G16KT 10SM CLR 22/11 A3023 RMK AO2 T02180112 PWINO
KLCK 221535Z AUTO 18011KT 10SM CLR 21/11 A3023 RMK AO2 T02110113 PWINO
KLCK 221515Z AUTO 18011KT 10SM CLR 20/11 A3023 RMK AO2 T02000114 PWINO
KLCK 221455Z AUTO 17009KT 10SM CLR 19/11 A3024 RMK AO2 T01920113 PWINO
KLCK 221435Z AUTO 17010KT 10SM CLR 18/12 A3024 RMK AO2 T01810122 PWINO
KLCK 221415Z AUTO 18006KT 10SM CLR 17/12 A3025 RMK AO2 T01680121 PWINO
KLCK 221355Z AUTO 17004KT 10SM CLR 16/12 A3025 RMK AO2 T01570120 PWINO
KLCK 221335Z AUTO 16006KT 10SM CLR 15/12 A3025 RMK AO2 T01490116 PWINO
KLCK 221315Z AUTO 15005KT 10SM CLR 13/11 A3024 RMK AO2 T01320113 PWINO
KLCK 221255Z AUTO 15003KT 10SM CLR 11/10 A3024 RMK AO2 T01070101 PWINO
KLCK 221235Z AUTO 00000KT 10SM CLR 09/09 A3023 RMK AO2 T00880088 PWINO
KLCK 221215Z AUTO 00000KT 10SM CLR 08/08 A3023 RMK AO2 T00820083 PWINO
KLCK 221155Z AUTO 00000KT 7SM CLR 08/08 A3023 RMK AO2 T00780079 PWINO
KLCK 221135Z AUTO 00000KT 7SM CLR 08/08 A3022 RMK AO2 T00810082 PWINO
KLCK 221115Z AUTO 00000KT 7SM CLR 09/09 A3022 RMK AO2 T00860087 PWINO
KLCK 221055Z AUTO 00000KT 5SM CLR 09/09 A3022 RMK AO2 T00910092 PWINO
KLCK 221035Z AUTO 00000KT 10SM CLR 09/10 A3022 RMK AO2 T00940095 PWINO
KLCK 221015Z AUTO 00000KT 10SM CLR 10/10 A3022 RMK AO2 T00970097 PWINO
KLCK 220955Z AUTO 00000KT 10SM CLR 10/10 A3022 RMK AO2 T01000100 PWINO
KLCK 220935Z AUTO 00000KT 10SM CLR 10/10 A3022 RMK AO2 T01020101 PWINO
KLCK 220915Z AUTO 00000KT 10SM CLR 10/10 A3022 RMK AO2 T01020100 PWINO
KLCK 220855Z AUTO 00000KT 10SM CLR 11/10 A3021 RMK AO2 T01060101 PWINO
KLCK 220835Z AUTO 00000KT 10SM CLR 11/10 A3021 RMK AO2 T01130103 PWINO
KLCK 220815Z AUTO 00000KT 10SM CLR 11/10 A3021 RMK AO2 T01120100 PWINO
KLCK 220755Z AUTO 00000KT 10SM CLR 12/10 A3021 RMK AO2 T01180102 PWINO
KLCK 220735Z AUTO 00000KT 10SM CLR 12/10 A3021 RMK AO2 T01190103 PWINO
KLCK 220715Z AUTO 00000KT 10SM CLR 11/10 A3021 RMK AO2 T01140103 PWINO
KLCK 220655Z AUTO 00000KT 10SM CLR 12/10 A3021 RMK AO2 T01210104 PWINO
KLCK 220635Z AUTO 00000KT 10SM CLR 12/10 A3021 RMK AO2 T01230104 PWINO
KLCK 220615Z AUTO 00000KT 10SM CLR 12/10 A3021 RMK AO2 T01180103 PWINO
KLCK 220555Z AUTO 15004KT 10SM CLR 12/10 A3020 RMK AO2 T01210103 PWINO
KLCK 220535Z AUTO 00000KT 10SM CLR 13/10 A3020 RMK AO2 T01270103 PWINO
KLCK 220515Z AUTO 00000KT 10SM CLR 13/11 A3020 RMK AO2 T01300106 PWINO
KLCK 220455Z AUTO 00000KT 10SM CLR 13/11 A3020 RMK AO2 T01270106 PWINO
KLCK 220435Z AUTO 00000KT 10SM CLR 13/11 A3021 RMK AO2 T01340105 PWINO
KLCK 220415Z AUTO 00000KT 10SM CLR 14/11 A3021 RMK AO2 T01440106 PWINO
KLCK 220355Z AUTO 00000KT 10SM CLR 15/11 A3022 RMK AO2 T01450107 PWINO
KLCK 220335Z AUTO 00000KT 10SM CLR 14/11 A3022 RMK AO2 T01420108 PWINO
KLCK 220315Z AUTO 15004KT 10SM CLR 15/11 A3022 RMK AO2 T01480109 PWINO
KLCK 220255Z AUTO 14005KT 10SM CLR 15/11 A3022 RMK AO2 T01460109 PWINO
KLCK 220235Z AUTO 16004KT 10SM CLR 15/11 A3023 RMK AO2 T01450107 PWINO
KLCK 220215Z AUTO 15006KT 10SM CLR 15/11 A3023 RMK AO2 T01490107 PWINO
KLCK 220155Z AUTO 15003KT 10SM CLR 15/11 A3023 RMK AO2 T01540107 PWINO
KLCK 220135Z AUTO 14003KT 10SM CLR 15/11 A3023 RMK AO2 T01530107 PWINO
KLCK 220115Z AUTO 14004KT 10SM CLR 15/11 A3023 RMK AO2 T01480108 PWINO
KLCK 220055Z AUTO 13005KT 10SM CLR 14/11 A3023 RMK AO2 T01410107 PWINO
KLCK 220035Z AUTO 11003KT 10SM CLR 14/10 A3023 RMK AO2 T01430102 PWINO
KLCK 220015Z AUTO 00000KT 10SM CLR 15/10 A3024 RMK AO2 T01470098 PWINO
KLCK 212355Z AUTO 15003KT 10SM CLR 16/10 A3023 RMK AO2 T01590095 PWINO
KLCK 212335Z AUTO 16004KT 10SM CLR 17/09 A3023 RMK AO2 T01720091 PWINO
KLCK 212315Z AUTO 17004KT 10SM CLR 18/09 A3023 RMK AO2 T01790090 PWINO
KLCK 212255Z AUTO 17005KT 10SM CLR 19/09 A3023 RMK AO2 T01870091 PWINO
KLCK 212235Z AUTO 18006KT 10SM CLR 20/10 A3022 RMK AO2 T01980095 PWINO
KLCK 212215Z AUTO 18006KT 10SM CLR 21/10 A3022 RMK AO2 T02120103 PWINO
KLCK 212155Z AUTO 17007KT 10SM CLR 22/11 A3022 RMK AO2 T02200114 PWINO
KLCK 212135Z AUTO 17005KT 10SM CLR 22/12 A3021 RMK AO2 T02180115 PWINO
KLCK 212115Z AUTO 18005KT 10SM CLR 22/11 A3021 RMK AO2 T02170108 PWINO
KLCK 212055Z AUTO 16007KT 10SM CLR 22/12 A3021 RMK AO2 T02210117 PWINO
KLCK 212035Z AUTO 16006KT 10SM CLR 22/12 A3021 RMK AO2 T02200120 PWINO
KLCK 212015Z AUTO 16006KT 10SM CLR 22/12 A3022 RMK AO2 T02200121 PWINO
KLCK 211955Z AUTO 17005KT 10SM CLR 22/12 A3022 RMK AO2 T02200122 PWINO
KLCK 211935Z AUTO 18006KT 10SM CLR 22/13 A3022 RMK AO2 T02210125 PWINO
KLCK 211915Z AUTO 19005KT 10SM CLR 22/12 A3022 RMK AO2 T02210122 PWINO
KLCK 211855Z AUTO 19006KT 10SM CLR 22/12 A3023 RMK AO2 T02200119 PWINO
KLCK 211835Z AUTO 20006KT 10SM CLR 22/12 A3022 RMK AO2 T02210116 PWINO
KLCK 211815Z AUTO 18004KT 10SM CLR 22/12 A3023 RMK AO2 T02200118 PWINO
KLCK 211755Z AUTO 19006KT 10SM CLR 22/12 A3023 RMK AO2 T02200116 PWINO
KLCK 211735Z AUTO 18004KT 10SM CLR 22/12 A3024 RMK AO2 T02210117 PWINO
KLCK 211715Z AUTO 20006KT 10SM CLR 22/12 A3025 RMK AO2 T02190116 PWINO
KLCK 211655Z AUTO 19005KT 10SM CLR 21/11 A3025 RMK AO2 T02110114 PWINO
KLCK 211635Z AUTO 19005KT 10SM CLR 20/11 A3026 RMK AO2 T02000112 PWINO
KLCK 211615Z AUTO 19005KT 10SM CLR 19/11 A3026 RMK AO2 T01920108 PWINO
KLCK 211555Z AUTO 21005KT 10SM CLR 18/10 A3027 RMK AO2 T01840104 PWINO
KLCK 211535Z AUTO 00000KT 10SM CLR 17/11 A3027 RMK AO2 T01730106 PWINO
KLCK 211515Z AUTO 00000KT 10SM CLR 16/10 A3027 RMK AO2 T01600103 PWINO
KLCK 211455Z AUTO 00000KT 10SM CLR 15/10 A3027 RMK AO2 T01460101 PWINO
KLCK 211435Z AUTO 00000KT 10SM CLR 13/10 A3027 RMK AO2 T01340096 PWINO
KLCK 211415Z AUTO 00000KT 10SM CLR 12/10 A3027 RMK AO2 T01200096 PWINO
KLCK 211355Z AUTO 00000KT 10SM CLR 11/09 A3028 RMK AO2 T01050087 PWINO
KLCK 211335Z AUTO 00000KT 10SM CLR 10/08 A3028 RMK AO2 T00970084 PWINO
KLCK 211315Z AUTO 00000KT 10SM CLR 10/08 A3027 RMK AO2 T00950083 PWINO
KLCK 211255Z AUTO 00000KT 10SM CLR 09/08 A3026 RMK AO2 T00890081 PWINO
KLCK 211235Z AUTO 00000KT 10SM CLR 08/07 A3026 RMK AO2 T00780074 PWINO